createdAt,value
2023-04-14T00:02:29.078Z,82.70
2023-04-14T00:05:32.114Z,82.30
2023-04-14T00:08:34.234Z,81.70
2023-04-14T00:11:36.518Z,82.00
2023-04-14T00:14:38.630Z,82.40
2023-04-14T00:17:40.857Z,82.50
2023-04-14T00:20:42.931Z,82.60
2023-04-14T00:23:44.878Z,83.00
2023-04-14T00:26:46.943Z,82.30
2023-04-14T00:29:48.938Z,81.90
2023-04-14T00:32:53.491Z,81.40
2023-04-14T00:35:55.502Z,81.20
2023-04-14T00:38:57.673Z,80.70
2023-04-14T00:42:02.109Z,80.10
2023-04-14T00:45:05.191Z,79.60
2023-04-14T00:48:09.623Z,79.80
2023-04-14T00:51:12.290Z,79.60
2023-04-14T00:54:18.051Z,79.40
2023-04-14T00:57:20.265Z,79.10
2023-04-14T01:00:23.222Z,78.90
2023-04-14T01:03:26.435Z,79.10
2023-04-14T01:06:29.094Z,78.90
2023-04-14T01:09:31.195Z,79.40
2023-04-14T01:12:54.534Z,78.70
2023-04-14T01:16:01.286Z,78.50
2023-04-14T01:19:25.382Z,78.70
2023-04-14T01:22:32.002Z,78.70
2023-04-14T01:25:57.944Z,78.90
2023-04-14T01:29:03.279Z,79.10
2023-04-14T01:32:11.669Z,79.30
2023-04-14T01:35:52.875Z,78.80
2023-04-14T01:38:57.295Z,78.30
2023-04-14T01:41:59.425Z,78.10
2023-04-14T01:45:10.797Z,78.00
2023-04-14T01:48:14.711Z,78.20
2023-04-14T01:51:19.860Z,78.00
2023-04-14T01:54:24.555Z,77.70
2023-04-14T01:57:29.617Z,77.30
2023-04-14T02:00:33.531Z,76.70
2023-04-14T02:03:39.820Z,76.60
2023-04-14T02:06:42.648Z,76.80
2023-04-14T02:09:45.664Z,76.60
2023-04-14T02:12:51.308Z,76.80
2023-04-14T02:15:53.557Z,76.70
2023-04-14T02:18:55.792Z,77.10
2023-04-14T02:21:58.980Z,77.50
2023-04-14T02:25:01.686Z,78.00
2023-04-14T02:28:16.262Z,78.30
2023-04-14T02:31:23.494Z,77.90
2023-04-14T02:34:30.145Z,78.30
2023-04-14T02:37:40.815Z,78.10
2023-04-14T02:40:45.391Z,78.30
2023-04-14T02:43:55.782Z,78.30
2023-04-14T02:47:03.534Z,77.80
2023-04-14T02:50:12.795Z,77.50
2023-04-14T02:53:21.976Z,77.40
2023-04-14T02:56:31.125Z,77.20
2023-04-14T02:59:34.780Z,77.10
2023-04-14T03:02:45.971Z,77.20
2023-04-14T03:05:48.766Z,77.60
2023-04-14T03:08:52.240Z,77.70
2023-04-14T03:11:59.174Z,78.00
2023-04-14T03:15:02.439Z,77.90
2023-04-14T03:18:06.485Z,77.80
2023-04-14T03:21:09.732Z,78.20
2023-04-14T03:24:14.794Z,78.10
2023-04-14T03:27:25.054Z,78.20
2023-04-14T03:30:30.541Z,78.20
2023-04-14T03:33:34.325Z,78.10
2023-04-14T03:36:37.285Z,78.00
2023-04-14T03:39:40.559Z,78.00
2023-04-14T03:42:45.454Z,78.20
2023-04-14T03:45:52.621Z,77.90
2023-04-14T03:48:55.818Z,77.70
2023-04-14T03:52:06.518Z,77.90
2023-04-14T03:55:11.658Z,77.80
2023-04-14T03:58:18.309Z,78.20
2023-04-14T04:01:25.206Z,78.10
2023-04-14T04:04:29.118Z,78.10
2023-04-14T04:07:32.760Z,78.10
2023-04-14T04:10:35.794Z,77.60
2023-04-14T04:13:39.486Z,77.80
2023-04-14T04:16:44.483Z,78.10
2023-04-14T04:19:50.002Z,77.60
2023-04-14T04:22:55.675Z,78.00
2023-04-14T04:25:58.724Z,78.10
2023-04-14T04:29:08.026Z,78.00
2023-04-14T04:32:10.271Z,77.90
2023-04-14T04:35:13.030Z,77.90
2023-04-14T04:38:17.539Z,78.60
2023-04-14T04:41:25.584Z,78.10
2023-04-14T04:44:28.824Z,78.50
2023-04-14T04:47:30.890Z,78.10
2023-04-14T04:50:33.084Z,78.40
2023-04-14T04:53:35.058Z,78.30
2023-04-14T04:56:37.042Z,78.30
2023-04-14T04:59:39.222Z,78.70
2023-04-14T05:02:41.395Z,78.50
2023-04-14T05:05:43.635Z,78.60
2023-04-14T05:08:45.788Z,78.40
2023-04-14T05:12:00.243Z,78.60
2023-04-14T05:15:03.738Z,78.40
2023-04-14T05:18:06.278Z,78.10
2023-04-14T05:21:13.235Z,78.40
2023-04-14T05:24:15.309Z,78.20
2023-04-14T05:27:17.528Z,78.40
2023-04-14T05:30:19.530Z,78.60
2023-04-14T05:33:21.906Z,78.60
2023-04-14T05:36:24.377Z,78.20
2023-04-14T05:39:26.604Z,78.00
2023-04-14T05:42:28.601Z,77.30
2023-04-14T05:45:30.594Z,77.10
2023-04-14T05:48:32.672Z,77.00
2023-04-14T05:51:34.685Z,76.70
2023-04-14T05:54:36.709Z,75.80
2023-04-14T05:57:41.288Z,76.00
2023-04-14T06:00:43.424Z,75.80
2023-04-14T06:03:48.755Z,75.30
2023-04-14T06:06:51.110Z,75.10
2023-04-14T06:09:53.346Z,74.70
2023-04-14T06:12:55.341Z,73.50
2023-04-14T06:15:57.400Z,71.90
2023-04-14T06:19:02.852Z,70.80
2023-04-14T06:22:05.062Z,68.70
2023-04-14T06:25:08.192Z,66.60
2023-04-14T06:28:10.213Z,64.80
2023-04-14T06:31:12.173Z,62.80
2023-04-14T06:34:14.211Z,62.00
2023-04-14T06:37:16.216Z,60.00
2023-04-14T06:40:18.387Z,58.90
2023-04-14T06:43:20.445Z,57.30
2023-04-14T06:46:22.950Z,56.00
2023-04-14T06:49:25.256Z,55.30
2023-04-14T06:52:29.540Z,54.20
2023-04-14T06:55:31.603Z,52.90
2023-04-14T06:58:33.853Z,51.50
2023-04-14T07:01:36.005Z,51.20
2023-04-14T07:04:38.098Z,50.30
2023-04-14T07:07:43.472Z,49.40
2023-04-14T07:10:47.822Z,49.50
2023-04-14T07:13:49.818Z,47.40
2023-04-14T07:16:52.625Z,45.40
2023-04-14T07:19:54.588Z,45.40
2023-04-14T07:22:56.605Z,45.60
2023-04-14T07:25:59.853Z,43.90
2023-04-14T07:29:01.954Z,43.60
2023-04-14T07:32:04.080Z,42.70
2023-04-14T07:35:07.335Z,43.00
2023-04-14T07:38:09.578Z,42.90
2023-04-14T07:41:11.878Z,41.60
2023-04-14T07:44:13.935Z,42.70
2023-04-14T07:47:16.480Z,42.70
2023-04-14T07:50:19.901Z,41.60
2023-04-14T07:53:22.560Z,40.60
2023-04-14T07:56:24.565Z,41.00
2023-04-14T07:59:26.536Z,41.20
2023-04-14T08:02:29.514Z,40.70
2023-04-14T08:05:31.790Z,40.80
2023-04-14T08:08:34.881Z,40.40
2023-04-14T08:11:36.880Z,40.50
2023-04-14T08:14:38.892Z,40.50
2023-04-14T08:17:40.883Z,40.10
2023-04-14T08:20:42.772Z,39.90
2023-04-14T08:23:44.825Z,40.20
2023-04-14T08:26:48.000Z,40.10
2023-04-14T08:29:49.983Z,38.90
2023-04-14T08:32:51.970Z,39.30
2023-04-14T08:35:59.565Z,38.40
2023-04-14T08:39:02.547Z,39.00
2023-04-14T08:42:04.890Z,39.10
2023-04-14T08:45:07.563Z,38.50
2023-04-14T08:48:11.770Z,38.20
2023-04-14T08:51:28.597Z,37.80
2023-04-14T08:54:31.400Z,38.40
2023-04-14T08:57:33.908Z,38.60
2023-04-14T09:00:36.215Z,37.20
2023-04-14T09:03:38.937Z,38.20
2023-04-14T09:06:41.156Z,38.60
2023-04-14T09:09:46.325Z,38.00
2023-04-14T09:12:49.008Z,38.40
2023-04-14T09:15:51.183Z,37.10
2023-04-14T09:19:01.561Z,36.60
2023-04-14T09:22:19.655Z,35.60
2023-04-14T09:25:22.378Z,36.80
2023-04-14T09:28:25.623Z,35.70
2023-04-14T09:31:27.932Z,37.00
2023-04-14T09:34:30.390Z,37.60
2023-04-14T09:37:45.658Z,37.70
2023-04-14T09:40:48.004Z,37.90
2023-04-14T09:43:50.849Z,35.90
2023-04-14T09:47:07.092Z,35.70
2023-04-14T09:50:09.628Z,36.30
2023-04-14T09:53:29.612Z,37.10
2023-04-14T09:56:34.731Z,36.60
2023-04-14T09:59:38.988Z,35.20
2023-04-14T10:02:59.171Z,34.80
2023-04-14T10:06:01.525Z,35.60
2023-04-14T10:09:04.645Z,34.70
2023-04-14T10:12:11.699Z,35.80
2023-04-14T10:15:13.816Z,34.50
2023-04-14T10:18:16.454Z,33.30
2023-04-14T10:21:18.672Z,31.60
2023-04-14T10:24:21.760Z,32.20
2023-04-14T10:27:26.961Z,33.30
2023-04-14T10:30:29.150Z,35.00
2023-04-14T10:33:31.270Z,34.10
2023-04-14T10:36:33.293Z,32.00
2023-04-14T10:39:35.447Z,33.90
2023-04-14T10:42:53.991Z,32.90
2023-04-14T10:45:56.942Z,33.90
2023-04-14T10:48:59.231Z,35.60
2023-04-14T11:03:26.170Z,35.10
2023-04-14T11:06:48.556Z,37.40
2023-04-14T11:09:50.566Z,38.40
2023-04-14T11:12:56.828Z,37.00
2023-04-14T11:16:07.863Z,35.30
2023-04-14T11:19:15.883Z,34.30
2023-04-14T11:22:37.561Z,36.90
2023-04-14T11:25:42.330Z,36.00
2023-04-14T11:28:45.758Z,38.00
2023-04-14T11:32:06.134Z,36.80
2023-04-14T11:35:08.590Z,37.40
2023-04-14T11:38:15.678Z,38.80
2023-04-14T11:41:17.785Z,36.80
2023-04-14T11:44:20.182Z,40.00
2023-04-14T11:47:22.674Z,40.80
2023-04-14T11:50:28.283Z,39.80
2023-04-14T11:53:30.286Z,39.90
2023-04-14T11:56:32.687Z,41.50
2023-04-14T11:59:45.347Z,38.80
2023-04-14T12:02:47.824Z,41.00
2023-04-14T12:05:50.192Z,38.10
2023-04-14T12:08:53.044Z,40.30
2023-04-14T12:11:55.184Z,39.90
2023-04-14T12:14:57.118Z,40.50
2023-04-14T12:18:02.324Z,39.40
2023-04-14T12:21:07.281Z,37.30
2023-04-14T12:24:11.645Z,36.50
2023-04-14T12:27:18.310Z,35.60
2023-04-14T12:30:23.694Z,37.30
2023-04-14T12:33:27.867Z,37.40
2023-04-14T12:36:45.395Z,39.90
2023-04-14T12:39:59.453Z,39.40
2023-04-14T12:43:01.720Z,37.00
2023-04-14T12:46:05.569Z,35.40
2023-04-14T12:49:28.794Z,38.80
2023-04-14T12:52:39.512Z,38.70
2023-04-14T12:55:41.508Z,38.20
2023-04-14T12:58:45.151Z,35.30
2023-04-14T13:01:47.176Z,38.00
2023-04-14T13:04:49.491Z,37.10
2023-04-14T13:07:51.506Z,34.60
2023-04-14T13:10:56.910Z,34.30
2023-04-14T13:13:58.879Z,36.00
2023-04-14T13:17:03.452Z,33.80
2023-04-14T13:20:06.249Z,33.60
2023-04-14T13:23:08.271Z,36.10
2023-04-14T13:26:11.072Z,37.00
2023-04-14T13:29:12.996Z,36.70
2023-04-14T13:32:15.054Z,35.30
2023-04-14T13:35:17.231Z,36.70
2023-04-14T13:38:19.171Z,35.80
2023-04-14T13:41:21.147Z,35.30
2023-04-14T13:44:23.343Z,35.20
2023-04-14T13:47:25.813Z,34.10
2023-04-14T13:50:28.211Z,33.70
2023-04-14T13:53:30.406Z,33.60
2023-04-14T13:56:33.014Z,35.20
2023-04-14T13:59:35.041Z,34.60
2023-04-14T14:02:38.011Z,37.30
2023-04-14T14:05:40.242Z,33.50
2023-04-14T14:08:42.946Z,35.20
2023-04-14T14:11:45.058Z,34.10
2023-04-14T14:14:47.279Z,34.80
2023-04-14T14:17:49.580Z,35.60
2023-04-14T14:20:51.630Z,32.50
2023-04-14T14:23:53.692Z,34.40
2023-04-14T14:26:55.672Z,34.30
2023-04-14T14:29:57.686Z,33.30
2023-04-14T14:33:02.300Z,30.40
2023-04-14T14:36:05.262Z,29.20
2023-04-14T14:39:07.340Z,29.30
2023-04-14T14:42:09.487Z,29.20
2023-04-14T14:45:11.770Z,30.30
2023-04-14T14:48:16.004Z,31.00
2023-04-14T14:51:18.010Z,29.80
2023-04-14T14:54:19.922Z,31.40
2023-04-14T14:57:21.927Z,33.90
2023-04-14T15:00:23.994Z,31.30
2023-04-14T15:03:29.212Z,30.80
2023-04-14T15:06:33.353Z,33.20
2023-04-14T15:09:35.340Z,34.00
2023-04-14T15:12:37.346Z,32.10
2023-04-14T15:15:39.406Z,33.20
2023-04-14T15:18:41.996Z,33.30
2023-04-14T15:21:43.956Z,33.60
2023-04-14T15:24:46.236Z,35.00
2023-04-14T15:27:49.018Z,35.00
2023-04-14T15:30:51.048Z,34.40
2023-04-14T15:33:53.168Z,34.20
2023-04-14T15:36:55.295Z,34.40
2023-04-14T15:39:57.352Z,33.60
2023-04-14T15:42:59.311Z,34.70
2023-04-14T15:46:02.131Z,33.10
2023-04-14T15:49:04.206Z,34.50
2023-04-14T15:52:06.179Z,34.50
2023-04-14T15:55:10.155Z,33.80
2023-04-14T15:58:12.193Z,33.60
2023-04-14T16:01:14.210Z,33.50
2023-04-14T16:04:16.792Z,34.40
2023-04-14T16:07:18.807Z,35.10
2023-04-14T16:10:21.454Z,34.60
2023-04-14T16:16:37.746Z,34.90
2023-04-14T16:19:40.367Z,33.30
2023-04-14T16:22:42.442Z,34.00
2023-04-14T16:25:49.064Z,35.60
2023-04-14T16:28:51.944Z,36.10
2023-04-14T16:32:00.287Z,35.10
2023-04-14T16:35:11.749Z,34.70
2023-04-14T16:38:14.278Z,34.50
2023-04-14T16:41:18.187Z,35.00
2023-04-14T16:44:20.438Z,35.10
2023-04-14T16:47:27.140Z,34.50
2023-04-14T16:50:47.601Z,35.50
2023-04-14T16:54:03.899Z,34.10
2023-04-14T16:57:13.290Z,34.20
2023-04-14T17:00:21.876Z,35.00
2023-04-14T17:03:25.918Z,31.70
2023-04-14T17:06:29.524Z,32.10
2023-04-14T17:09:39.053Z,34.20
2023-04-14T17:12:41.386Z,32.70
2023-04-14T17:15:44.809Z,35.00
2023-04-14T17:18:49.475Z,33.10
2023-04-14T17:22:05.863Z,34.40
2023-04-14T17:25:13.751Z,36.90
2023-04-14T17:28:22.339Z,34.30
2023-04-14T17:31:25.874Z,34.70
2023-04-14T17:34:31.880Z,36.10
2023-04-14T17:37:36.437Z,35.70
2023-04-14T17:40:41.593Z,35.80
2023-04-14T17:43:44.327Z,36.80
2023-04-14T17:46:46.690Z,37.00
2023-04-14T17:49:49.546Z,41.50
2023-04-14T17:53:02.358Z,41.70
2023-04-14T17:56:06.031Z,43.30
2023-04-14T17:59:08.436Z,44.50
2023-04-14T18:02:11.270Z,43.90
2023-04-14T18:05:13.560Z,44.90
2023-04-14T18:08:16.434Z,44.50
2023-04-14T18:11:21.397Z,42.30
2023-04-14T18:14:25.530Z,43.50
2023-04-14T18:17:27.977Z,46.20
2023-04-14T18:20:30.359Z,46.80
2023-04-14T18:23:33.147Z,44.00
2023-04-14T18:29:43.304Z,46.20
2023-04-14T18:32:48.518Z,46.20
2023-04-14T18:35:59.008Z,46.80
2023-04-14T18:39:01.750Z,49.90
2023-04-14T18:42:06.764Z,50.80
2023-04-14T18:45:10.927Z,47.20
2023-04-14T18:48:16.751Z,47.50
2023-04-14T18:51:19.010Z,50.30
2023-04-14T18:54:22.241Z,49.30
2023-04-14T18:57:24.592Z,50.00
2023-04-14T19:00:28.590Z,48.30
2023-04-14T19:03:30.827Z,49.20
2023-04-14T19:06:35.558Z,50.10
2023-04-14T19:09:42.105Z,50.00
2023-04-14T19:12:45.225Z,50.30
2023-04-14T19:15:47.390Z,50.80
2023-04-14T19:18:49.856Z,50.70
2023-04-14T19:21:52.085Z,50.60
2023-04-14T19:24:54.458Z,52.60
2023-04-14T19:28:00.160Z,51.30
2023-04-14T19:31:03.508Z,52.80
2023-04-14T19:34:06.488Z,52.60
2023-04-14T19:37:15.648Z,52.30
2023-04-14T19:40:18.731Z,52.70
2023-04-14T19:43:25.033Z,53.40
2023-04-14T19:46:28.749Z,54.80
2023-04-14T19:49:31.095Z,55.40
2023-04-14T19:52:36.906Z,54.40
2023-04-14T19:55:42.897Z,54.90
2023-04-14T19:58:45.088Z,55.00
2023-04-14T20:01:49.200Z,55.40
2023-04-14T20:04:51.408Z,56.50
2023-04-14T20:11:02.799Z,57.50
2023-04-14T20:14:05.492Z,58.40
2023-04-14T20:17:07.823Z,58.80
2023-04-14T20:20:10.285Z,57.70
2023-04-14T20:23:12.631Z,58.20
2023-04-14T20:26:14.848Z,58.90
2023-04-14T20:29:17.119Z,58.60
2023-04-14T20:32:20.932Z,59.00
2023-04-14T20:35:23.213Z,59.30
2023-04-14T20:38:25.384Z,58.60
2023-04-14T20:41:27.440Z,59.30
2023-04-14T20:44:30.014Z,58.80
2023-04-14T20:47:32.201Z,59.80
2023-04-14T20:50:34.424Z,59.60
2023-04-14T20:53:36.420Z,59.70
2023-04-14T20:56:40.436Z,60.10
2023-04-14T20:59:42.504Z,60.70
2023-04-14T21:02:46.095Z,60.80
2023-04-14T21:05:49.298Z,61.00
2023-04-14T21:08:51.371Z,60.70
2023-04-14T21:12:15.587Z,61.10
2023-04-14T21:15:46.901Z,60.50
2023-04-14T21:18:37.819Z,60.90
2023-04-14T21:21:40.582Z,60.20
2023-04-14T21:24:42.614Z,59.50
2023-04-14T21:27:44.872Z,59.80
2023-04-14T21:30:46.826Z,61.00
2023-04-14T21:33:49.392Z,61.40
2023-04-14T21:36:51.444Z,61.90
2023-04-14T21:39:53.505Z,61.50
2023-04-14T21:42:55.496Z,60.90
2023-04-14T21:45:58.030Z,61.20
2023-04-14T21:49:00.637Z,61.80
2023-04-14T21:52:02.917Z,62.80
2023-04-14T21:55:05.424Z,62.60
2023-04-14T21:58:07.491Z,63.20
2023-04-14T22:01:09.881Z,62.80
2023-04-14T22:04:19.065Z,63.80
2023-04-14T22:07:27.395Z,63.10
2023-04-14T22:10:29.406Z,64.10
2023-04-14T22:13:31.445Z,64.60
2023-04-14T22:16:34.980Z,64.90
2023-04-14T22:19:37.016Z,65.00
2023-04-14T22:22:41.281Z,65.00
2023-04-14T22:25:44.021Z,64.70
2023-04-14T22:28:45.982Z,64.60
2023-04-14T22:31:47.978Z,64.20
2023-04-14T22:34:49.969Z,64.50
2023-04-14T22:37:51.964Z,65.40
2023-04-14T22:40:55.259Z,65.70
2023-04-14T22:43:57.453Z,66.10
2023-04-14T22:46:59.539Z,65.60
2023-04-14T22:50:02.827Z,65.50
2023-04-14T22:53:05.748Z,65.40
2023-04-14T22:56:08.120Z,65.20
2023-04-14T22:59:10.322Z,65.70
2023-04-14T23:02:12.681Z,64.80
2023-04-14T23:05:14.943Z,64.60
2023-04-14T23:08:16.982Z,64.40
2023-04-14T23:11:20.764Z,65.30
2023-04-14T23:14:24.640Z,65.10
2023-04-14T23:17:26.915Z,65.00
2023-04-14T23:20:29.243Z,65.50
2023-04-14T23:23:32.286Z,66.10
2023-04-14T23:26:34.544Z,66.70
2023-04-14T23:29:37.295Z,65.20
2023-04-14T23:32:40.331Z,66.10
2023-04-14T23:35:42.353Z,66.70
2023-04-14T23:38:45.207Z,67.40
2023-04-14T23:41:47.647Z,67.30
2023-04-14T23:44:49.546Z,68.10
2023-04-14T23:47:51.654Z,68.00
2023-04-14T23:50:59.981Z,68.40
2023-04-14T23:54:18.129Z,68.00
2023-04-14T23:57:20.293Z,67.90
